createdAt,value
2022-11-24T00:00:53.454Z,74.98
2022-11-24T00:03:21.153Z,75.03
2022-11-24T00:05:48.867Z,74.64
2022-11-24T00:08:18.263Z,75.29
2022-11-24T00:10:45.780Z,74.48
2022-11-24T00:13:13.481Z,73.79
2022-11-24T00:15:41.026Z,74.02
2022-11-24T00:18:08.481Z,73.96
2022-11-24T00:20:35.951Z,74.21
2022-11-24T00:23:03.415Z,74.09
2022-11-24T00:25:33.085Z,73.95
2022-11-24T00:28:00.707Z,74.01
2022-11-24T00:30:28.186Z,73.81
2022-11-24T00:32:55.776Z,73.59
2022-11-24T00:35:24.301Z,73.18
2022-11-24T00:37:53.571Z,74.05
2022-11-24T00:40:21.298Z,73.29
2022-11-24T00:42:50.151Z,73.77
2022-11-24T00:45:17.785Z,73.49
2022-11-24T00:47:45.252Z,73.23
2022-11-24T00:50:12.797Z,73.14
2022-11-24T00:52:40.298Z,73.41
2022-11-24T00:55:08.326Z,73.81
2022-11-24T00:57:36.420Z,74.06
2022-11-24T01:00:06.238Z,73.25
2022-11-24T01:02:33.764Z,73.18
2022-11-24T01:05:02.141Z,72.59
2022-11-24T01:07:29.708Z,72.65
2022-11-24T01:09:57.300Z,73.41
2022-11-24T01:12:24.771Z,73.07
2022-11-24T01:14:52.230Z,72.82
2022-11-24T01:17:21.058Z,72.72
2022-11-24T01:19:49.074Z,73.04
2022-11-24T01:22:16.660Z,73.35
2022-11-24T01:24:44.200Z,73.45
2022-11-24T01:27:11.674Z,73.30
2022-11-24T01:29:39.137Z,73.09
2022-11-24T01:32:07.094Z,73.06
2022-11-24T01:34:36.011Z,72.25
2022-11-24T01:37:03.526Z,72.46
2022-11-24T01:39:30.971Z,72.70
2022-11-24T01:42:02.014Z,72.56
2022-11-24T01:44:30.946Z,72.68
2022-11-24T01:47:01.939Z,72.10
2022-11-24T01:49:40.378Z,72.80
2022-11-24T01:52:12.767Z,72.61
2022-11-24T01:54:44.631Z,72.84
2022-11-24T01:57:17.936Z,72.79
2022-11-24T01:59:47.614Z,72.92
2022-11-24T02:02:15.437Z,73.48
2022-11-24T02:04:46.365Z,73.20
2022-11-24T02:07:15.278Z,73.31
2022-11-24T02:09:48.588Z,72.86
2022-11-24T02:12:16.106Z,72.79
2022-11-24T02:14:44.921Z,72.75
2022-11-24T02:17:12.538Z,73.51
2022-11-24T02:19:49.902Z,73.25
2022-11-24T02:22:23.928Z,72.55
2022-11-24T02:24:57.006Z,73.43
2022-11-24T02:27:26.108Z,73.28
2022-11-24T02:29:53.709Z,73.08
2022-11-24T02:32:21.499Z,72.77
2022-11-24T02:34:49.157Z,73.48
2022-11-24T02:37:16.632Z,73.24
2022-11-24T02:39:44.063Z,73.29
2022-11-24T02:42:14.524Z,73.08
2022-11-24T02:44:46.506Z,73.68
2022-11-24T02:47:14.247Z,73.40
2022-11-24T02:49:42.101Z,73.44
2022-11-24T02:52:09.957Z,72.77
2022-11-24T02:54:37.583Z,72.58
2022-11-24T02:57:05.287Z,72.45
2022-11-24T02:59:32.891Z,72.68
2022-11-24T03:02:02.949Z,72.79
2022-11-24T03:04:30.672Z,72.25
2022-11-24T03:06:58.602Z,72.44
2022-11-24T03:09:26.062Z,72.36
2022-11-24T03:11:53.525Z,71.72
2022-11-24T03:14:20.957Z,72.75
2022-11-24T03:16:48.533Z,72.82
2022-11-24T03:19:17.373Z,72.52
2022-11-24T03:21:46.044Z,71.82
2022-11-24T03:24:13.521Z,72.46
2022-11-24T03:26:41.815Z,73.29
2022-11-24T03:29:09.618Z,72.64
2022-11-24T03:31:37.254Z,73.62
2022-11-24T03:34:04.980Z,73.46
2022-11-24T03:36:33.816Z,72.76
2022-11-24T03:39:01.422Z,72.63
2022-11-24T03:41:28.881Z,73.04
2022-11-24T03:43:56.450Z,72.19
2022-11-24T03:46:24.003Z,72.35
2022-11-24T03:48:51.550Z,71.87
2022-11-24T03:51:19.010Z,72.27
2022-11-24T03:53:47.779Z,72.52
2022-11-24T03:56:15.783Z,72.06
2022-11-24T03:58:43.331Z,72.57
2022-11-24T04:01:10.828Z,71.79
2022-11-24T04:03:38.253Z,72.12
2022-11-24T04:06:05.792Z,72.43
2022-11-24T04:08:33.246Z,72.31
2022-11-24T04:11:02.063Z,72.28
2022-11-24T04:13:28.747Z,71.66
2022-11-24T04:15:56.201Z,70.94
2022-11-24T04:18:23.951Z,70.59
2022-11-24T04:20:51.936Z,70.37
2022-11-24T04:23:20.569Z,71.45
2022-11-24T04:25:48.638Z,71.23
2022-11-24T04:28:17.428Z,71.35
2022-11-24T04:30:45.344Z,71.98
2022-11-24T04:33:13.738Z,72.13
2022-11-24T04:35:41.217Z,72.11
2022-11-24T04:38:08.755Z,72.94
2022-11-24T04:40:36.175Z,72.62
2022-11-24T04:43:03.632Z,72.85
2022-11-24T04:45:32.454Z,72.98
2022-11-24T04:47:59.916Z,74.06
2022-11-24T04:50:27.429Z,73.54
2022-11-24T04:52:54.918Z,73.74
2022-11-24T04:55:22.393Z,72.95
2022-11-24T04:57:49.868Z,73.28
2022-11-24T05:00:18.405Z,73.53
2022-11-24T05:02:47.280Z,73.67
2022-11-24T05:05:14.846Z,73.63
2022-11-24T05:07:42.343Z,73.63
2022-11-24T05:10:28.084Z,73.18
2022-11-24T05:12:56.007Z,73.29
2022-11-24T05:15:23.487Z,73.10
2022-11-24T05:17:52.564Z,73.77
2022-11-24T05:20:20.202Z,73.88
2022-11-24T05:22:47.816Z,73.18
2022-11-24T05:25:15.433Z,73.46
2022-11-24T05:27:42.969Z,73.25
2022-11-24T05:30:11.209Z,73.52
2022-11-24T05:32:38.665Z,73.25
2022-11-24T05:35:09.639Z,72.65
2022-11-24T05:37:37.407Z,72.48
2022-11-24T05:40:06.810Z,72.33
2022-11-24T05:42:47.568Z,72.22
2022-11-24T05:45:21.271Z,72.33
2022-11-24T05:47:50.413Z,72.15
2022-11-24T05:50:20.980Z,72.14
2022-11-24T05:52:48.511Z,71.81
2022-11-24T05:55:16.774Z,71.65
2022-11-24T05:57:44.261Z,71.90
2022-11-24T06:00:12.605Z,71.93
2022-11-24T06:02:40.376Z,71.67
2022-11-24T06:05:09.005Z,71.16
2022-11-24T06:07:37.858Z,71.65
2022-11-24T06:10:06.062Z,71.47
2022-11-24T06:12:33.540Z,71.85
2022-11-24T06:15:01.117Z,71.45
2022-11-24T06:17:28.730Z,71.37
2022-11-24T06:19:56.209Z,71.76
2022-11-24T06:22:23.650Z,71.90
2022-11-24T06:24:52.610Z,71.65
2022-11-24T06:27:20.115Z,71.72
2022-11-24T06:29:48.222Z,71.53
2022-11-24T06:32:16.009Z,71.89
2022-11-24T06:34:43.904Z,71.33
2022-11-24T06:37:11.470Z,71.91
2022-11-24T06:39:38.992Z,70.87
2022-11-24T06:42:07.868Z,71.63
2022-11-24T06:44:35.468Z,70.98
2022-11-24T06:47:03.092Z,71.73
2022-11-24T06:49:30.531Z,71.47
2022-11-24T06:51:58.014Z,70.67
2022-11-24T06:54:25.463Z,70.65
2022-11-24T06:56:57.275Z,70.90
2022-11-24T06:59:26.672Z,71.79
2022-11-24T07:01:54.236Z,71.21
2022-11-24T07:04:21.677Z,71.46
2022-11-24T07:06:49.192Z,71.55
2022-11-24T07:09:16.648Z,71.96
2022-11-24T07:11:44.160Z,72.04
2022-11-24T07:14:11.621Z,72.20
2022-11-24T07:16:40.825Z,71.71
2022-11-24T07:19:10.486Z,70.95
2022-11-24T07:21:37.947Z,71.01
2022-11-24T07:24:06.204Z,71.09
2022-11-24T07:26:37.102Z,70.38
2022-11-24T07:29:05.479Z,70.18
2022-11-24T07:31:33.113Z,70.98
2022-11-24T07:34:02.031Z,70.96
2022-11-24T07:36:29.481Z,70.70
2022-11-24T07:38:56.950Z,70.88
2022-11-24T07:41:24.437Z,70.36
2022-11-24T07:43:52.948Z,70.47
2022-11-24T07:46:21.229Z,69.59
2022-11-24T07:48:48.892Z,69.51
2022-11-24T07:51:17.702Z,69.34
2022-11-24T07:53:46.288Z,69.00
2022-11-24T07:56:13.976Z,68.70
2022-11-24T07:58:41.476Z,68.23
2022-11-24T08:01:14.385Z,69.40
2022-11-24T08:03:42.651Z,68.98
2022-11-24T08:06:30.514Z,68.86
2022-11-24T08:09:00.298Z,69.16
2022-11-24T08:11:27.965Z,68.84
2022-11-24T08:13:55.502Z,68.12
2022-11-24T08:16:23.131Z,68.65
2022-11-24T08:18:51.810Z,68.91
2022-11-24T08:21:19.563Z,68.57
2022-11-24T08:23:47.301Z,68.97
2022-11-24T08:26:19.148Z,68.47
2022-11-24T08:28:47.442Z,68.96
2022-11-24T08:31:18.450Z,67.88
2022-11-24T08:33:46.148Z,69.01
2022-11-24T08:36:16.075Z,68.81
2022-11-24T08:38:44.557Z,68.54
2022-11-24T08:41:14.443Z,68.66
2022-11-24T08:43:43.757Z,68.55
2022-11-24T08:46:13.750Z,68.36
2022-11-24T08:48:41.629Z,68.55
2022-11-24T08:51:12.061Z,68.07
2022-11-24T08:53:40.243Z,68.42
2022-11-24T08:56:08.619Z,68.83
2022-11-24T08:58:36.985Z,68.53
2022-11-24T09:01:07.470Z,69.86
2022-11-24T09:03:35.352Z,69.58
2022-11-24T09:06:03.480Z,70.25
2022-11-24T09:08:31.657Z,71.52
2022-11-24T09:11:01.957Z,71.43
2022-11-24T09:13:29.943Z,72.17
2022-11-24T09:15:57.517Z,72.51
2022-11-24T09:18:30.059Z,72.01
2022-11-24T09:21:07.994Z,72.13
2022-11-24T09:23:36.099Z,72.43
2022-11-24T09:26:05.638Z,72.33
2022-11-24T09:28:33.125Z,72.00
2022-11-24T09:31:04.731Z,71.88
2022-11-24T09:33:34.468Z,70.91
2022-11-24T09:36:02.864Z,70.71
2022-11-24T09:38:30.741Z,70.78
2022-11-24T09:41:22.400Z,70.95
2022-11-24T09:44:00.333Z,70.75
2022-11-24T09:46:33.883Z,70.47
2022-11-24T09:49:06.121Z,70.13
2022-11-24T09:51:34.871Z,69.91
2022-11-24T09:54:07.589Z,70.74
2022-11-24T09:56:40.616Z,70.14
2022-11-24T09:59:15.576Z,70.42
2022-11-24T10:01:45.294Z,70.14
2022-11-24T10:04:18.281Z,70.45
2022-11-24T10:06:51.609Z,70.58
2022-11-24T10:09:38.678Z,70.25
2022-11-24T10:12:27.507Z,69.40
2022-11-24T10:15:18.857Z,69.67
2022-11-24T10:18:01.044Z,69.66
2022-11-24T10:20:42.807Z,69.03
2022-11-24T10:23:25.098Z,69.55
2022-11-24T10:25:58.276Z,70.92
2022-11-24T10:28:33.415Z,70.11
2022-11-24T10:31:18.328Z,69.72
2022-11-24T10:33:47.437Z,70.24
2022-11-24T10:36:22.801Z,69.64
2022-11-24T10:38:55.078Z,69.77
2022-11-24T10:41:30.543Z,69.20
2022-11-24T10:43:59.249Z,68.95
2022-11-24T10:46:31.456Z,69.00
2022-11-24T10:49:05.496Z,68.87
2022-11-24T10:51:43.594Z,69.52
2022-11-24T10:54:17.668Z,69.22
2022-11-24T10:56:46.960Z,68.24
2022-11-24T10:59:39.420Z,69.39
2022-11-24T11:02:44.139Z,68.84
2022-11-24T11:05:35.022Z,68.29
2022-11-24T11:08:19.813Z,67.94
2022-11-24T11:10:49.073Z,67.94
2022-11-24T11:13:24.910Z,66.64
2022-11-24T11:15:52.546Z,67.04
2022-11-24T11:18:21.399Z,66.79
2022-11-24T11:20:52.607Z,66.85
2022-11-24T11:23:27.689Z,66.91
2022-11-24T11:26:21.128Z,66.65
2022-11-24T11:31:15.498Z,66.76
2022-11-24T11:34:51.604Z,66.02
2022-11-24T11:37:20.945Z,66.43
2022-11-24T11:39:51.891Z,65.78
2022-11-24T11:43:00.041Z,66.35
2022-11-24T11:45:16.559Z,65.67
2022-11-24T11:47:50.904Z,65.02
2022-11-24T11:50:25.292Z,65.45
2022-11-24T11:53:06.036Z,65.10
2022-11-24T11:55:48.154Z,65.69
2022-11-24T11:58:37.616Z,65.46
2022-11-24T12:01:19.399Z,65.13
2022-11-24T12:03:57.228Z,65.24
2022-11-24T12:06:42.259Z,65.64
2022-11-24T12:09:22.479Z,65.85
2022-11-24T12:12:04.445Z,66.66
2022-11-24T12:14:42.291Z,67.17
2022-11-24T12:17:21.824Z,67.02
2022-11-24T12:20:08.300Z,67.34
2022-11-24T12:22:46.170Z,65.50
2022-11-24T12:25:23.811Z,65.69
2022-11-24T12:28:04.218Z,65.53
2022-11-24T12:30:42.719Z,66.95
2022-11-24T12:33:30.264Z,66.42
2022-11-24T12:36:04.377Z,65.99
2022-11-24T12:38:46.637Z,65.09
2022-11-24T12:41:41.785Z,65.20
2022-11-24T12:44:26.669Z,64.20
2022-11-24T12:47:00.078Z,64.00
2022-11-24T12:49:34.974Z,63.61
2022-11-24T12:52:07.139Z,64.03
2022-11-24T12:54:41.595Z,63.40
2022-11-24T12:57:15.966Z,63.23
2022-11-24T12:59:53.860Z,63.77
2022-11-24T13:02:30.915Z,62.34
2022-11-24T13:05:09.579Z,62.22
2022-11-24T13:07:44.632Z,63.11
2022-11-24T13:13:23.031Z,62.36
2022-11-24T13:19:10.290Z,62.27
2022-11-24T13:22:00.932Z,62.00
2022-11-24T13:24:30.630Z,61.94
2022-11-24T13:27:27.549Z,62.45
2022-11-24T13:29:55.313Z,61.38
2022-11-24T13:33:02.760Z,62.26
2022-11-24T13:35:30.544Z,60.46
2022-11-24T13:37:58.029Z,61.35
2022-11-24T13:40:59.834Z,62.04
2022-11-24T13:43:31.828Z,61.42
2022-11-24T13:45:59.455Z,60.47
2022-11-24T13:49:02.390Z,61.28
2022-11-24T13:51:30.051Z,61.71
2022-11-24T13:54:00.836Z,61.40
2022-11-24T13:56:31.091Z,60.91
2022-11-24T13:59:01.899Z,61.08
2022-11-24T14:01:32.211Z,61.53
2022-11-24T14:04:33.459Z,60.37
2022-11-24T14:07:09.130Z,60.49
2022-11-24T14:09:42.423Z,60.10
2022-11-24T14:12:15.191Z,60.98
2022-11-24T14:14:43.949Z,59.55
2022-11-24T14:17:18.594Z,60.89
2022-11-24T14:19:49.271Z,60.37
2022-11-24T14:22:18.813Z,60.81
2022-11-24T14:24:51.782Z,60.89
2022-11-24T14:27:22.976Z,61.40
2022-11-24T14:29:55.570Z,60.79
2022-11-24T14:32:23.402Z,60.68
2022-11-24T14:34:53.997Z,61.53
2022-11-24T14:37:21.640Z,61.40
2022-11-24T14:39:49.751Z,61.52
2022-11-24T14:42:19.931Z,60.94
2022-11-24T14:44:51.646Z,61.22
2022-11-24T14:47:30.590Z,62.19
2022-11-24T14:50:09.153Z,62.24
2022-11-24T14:52:37.358Z,62.45
2022-11-24T14:55:22.095Z,61.69
2022-11-24T14:57:50.359Z,61.05
2022-11-24T15:00:20.452Z,61.46
2022-11-24T15:02:51.712Z,61.95
2022-11-24T15:05:21.919Z,61.61
2022-11-24T15:07:52.702Z,61.51
2022-11-24T15:10:27.745Z,61.66
2022-11-24T15:13:00.718Z,61.08
2022-11-24T15:15:33.107Z,62.43
2022-11-24T15:18:02.251Z,62.09
2022-11-24T15:20:35.112Z,62.02
2022-11-24T15:23:25.349Z,62.18
2022-11-24T15:25:54.204Z,62.22
2022-11-24T15:28:25.534Z,62.63
2022-11-24T15:30:54.797Z,62.46
2022-11-24T15:33:23.671Z,62.83
2022-11-24T15:35:52.568Z,63.45
2022-11-24T15:38:20.788Z,64.22
2022-11-24T15:40:50.088Z,64.25
2022-11-24T15:43:23.508Z,64.57
2022-11-24T15:45:51.010Z,64.71
2022-11-24T15:48:18.604Z,65.11
2022-11-24T15:50:46.408Z,65.06
2022-11-24T15:53:19.981Z,64.93
2022-11-24T15:55:47.915Z,64.95
2022-11-24T15:58:16.185Z,64.73
2022-11-24T16:00:45.073Z,64.61
2022-11-24T16:03:45.239Z,64.81
2022-11-24T16:06:00.628Z,65.02
2022-11-24T16:08:29.428Z,64.70
2022-11-24T16:10:56.952Z,65.27
2022-11-24T16:13:24.476Z,65.31
2022-11-24T16:15:51.965Z,65.45
2022-11-24T16:18:19.537Z,65.44
2022-11-24T16:20:47.084Z,65.41
2022-11-24T16:23:14.588Z,65.74
2022-11-24T16:25:43.393Z,66.18
2022-11-24T16:28:10.864Z,65.91
2022-11-24T16:30:38.455Z,65.65
2022-11-24T16:33:06.650Z,66.20
2022-11-24T16:35:34.299Z,66.70
2022-11-24T16:38:01.753Z,66.87
2022-11-24T16:40:29.301Z,66.52
2022-11-24T16:42:58.721Z,66.41
2022-11-24T16:45:26.644Z,66.38
2022-11-24T16:47:54.148Z,66.80
2022-11-24T16:50:21.834Z,66.34
2022-11-24T16:52:49.299Z,66.69
2022-11-24T16:55:16.963Z,66.94
2022-11-24T16:57:44.550Z,66.87
2022-11-24T17:00:15.072Z,67.43
2022-11-24T17:02:42.574Z,66.84
2022-11-24T17:05:10.554Z,66.86
2022-11-24T17:07:38.062Z,66.55
2022-11-24T17:10:07.092Z,66.56
2022-11-24T17:12:36.267Z,67.04
2022-11-24T17:15:31.208Z,66.97
2022-11-24T17:18:22.316Z,67.11
2022-11-24T17:20:40.171Z,66.53
2022-11-24T17:23:07.642Z,66.29
2022-11-24T17:25:35.119Z,66.25
2022-11-24T17:28:02.532Z,66.50
2022-11-24T17:30:29.994Z,66.13
2022-11-24T17:32:59.043Z,67.27
2022-11-24T17:35:26.457Z,66.41
2022-11-24T17:37:53.886Z,66.36
2022-11-24T17:40:28.437Z,66.37
2022-11-24T17:42:58.984Z,66.21
2022-11-24T17:45:26.962Z,65.92
2022-11-24T17:47:54.536Z,65.93
2022-11-24T17:50:25.943Z,65.73
2022-11-24T17:52:53.674Z,66.54
2022-11-24T17:55:21.162Z,66.36
2022-11-24T17:57:48.589Z,66.24
2022-11-24T18:00:17.060Z,66.61
2022-11-24T18:02:44.513Z,66.67
2022-11-24T18:05:12.021Z,67.02
2022-11-24T18:07:40.862Z,66.68
2022-11-24T18:10:09.504Z,66.89
2022-11-24T18:12:36.938Z,66.44
2022-11-24T18:15:04.873Z,66.44
2022-11-24T18:17:32.291Z,67.05
2022-11-24T18:19:59.746Z,66.80
2022-11-24T18:22:50.083Z,66.86
2022-11-24T18:25:16.177Z,66.99
2022-11-24T18:27:43.676Z,66.68
2022-11-24T18:30:11.307Z,66.35
2022-11-24T18:32:38.759Z,66.54
2022-11-24T18:35:07.226Z,66.70
2022-11-24T18:37:36.644Z,66.73
2022-11-24T18:40:04.475Z,66.79
2022-11-24T18:42:33.278Z,66.15
2022-11-24T18:45:00.724Z,66.19
2022-11-24T18:47:28.200Z,66.02
2022-11-24T18:49:59.028Z,66.19
2022-11-24T18:52:26.573Z,65.80
2022-11-24T18:54:54.033Z,66.12
2022-11-24T18:57:21.490Z,65.35
2022-11-24T18:59:50.300Z,65.72
2022-11-24T19:02:17.784Z,65.85
2022-11-24T19:04:45.275Z,65.75
2022-11-24T19:07:12.793Z,66.55
2022-11-24T19:09:40.300Z,65.91
2022-11-24T19:12:09.263Z,65.41
2022-11-24T19:14:37.928Z,66.41
2022-11-24T19:17:06.997Z,66.29
2022-11-24T19:19:35.805Z,66.16
2022-11-24T19:22:04.081Z,66.04
2022-11-24T19:24:31.526Z,66.16
2022-11-24T19:26:59.134Z,65.54
2022-11-24T19:29:26.596Z,66.31
2022-11-24T19:31:55.008Z,66.19
2022-11-24T19:34:23.846Z,66.68
2022-11-24T19:36:51.292Z,66.18
2022-11-24T19:39:18.854Z,66.79
2022-11-24T19:41:46.349Z,66.10
2022-11-24T19:44:14.325Z,66.61
2022-11-24T19:46:41.759Z,66.90
2022-11-24T19:49:09.676Z,66.74
2022-11-24T19:51:40.018Z,66.57
2022-11-24T19:54:12.661Z,66.14
2022-11-24T19:56:41.248Z,66.43
2022-11-24T19:59:08.868Z,67.12
2022-11-24T20:01:37.972Z,66.80
2022-11-24T20:04:07.265Z,66.39
2022-11-24T20:06:37.233Z,66.27
2022-11-24T20:09:07.613Z,67.07
2022-11-24T20:11:35.307Z,67.91
2022-11-24T20:14:02.983Z,67.07
2022-11-24T20:16:32.408Z,68.16
2022-11-24T20:19:01.699Z,67.03
2022-11-24T20:21:31.708Z,68.34
2022-11-24T20:24:01.554Z,66.59
2022-11-24T20:26:32.459Z,67.56
2022-11-24T20:29:00.974Z,66.96
2022-11-24T20:31:30.490Z,67.59
2022-11-24T20:33:58.456Z,67.29
2022-11-24T20:36:28.158Z,67.33
2022-11-24T20:38:56.239Z,66.69
2022-11-24T20:41:25.726Z,66.83
2022-11-24T20:43:57.271Z,66.92
2022-11-24T20:46:27.310Z,67.25
2022-11-24T20:48:55.855Z,66.63
2022-11-24T20:51:25.227Z,67.75
2022-11-24T20:53:55.527Z,67.22
2022-11-24T20:56:24.827Z,67.67
2022-11-24T20:58:54.252Z,67.67
2022-11-24T21:01:23.903Z,67.91
2022-11-24T21:03:54.170Z,68.30
2022-11-24T21:06:22.439Z,68.85
2022-11-24T21:08:50.384Z,68.01
2022-11-24T21:11:19.172Z,68.11
2022-11-24T21:13:47.428Z,68.63
2022-11-24T21:16:18.803Z,68.97
2022-11-24T21:18:47.939Z,68.59
2022-11-24T21:21:15.625Z,68.85
2022-11-24T21:23:44.951Z,70.20
2022-11-24T21:26:16.564Z,69.37
2022-11-24T21:28:46.084Z,69.51
2022-11-24T21:31:17.177Z,69.11
2022-11-24T21:33:46.607Z,69.79
2022-11-24T21:36:16.237Z,70.07
2022-11-24T21:38:43.723Z,69.89
2022-11-24T21:41:13.841Z,70.02
2022-11-24T21:43:41.319Z,70.27
2022-11-24T21:46:11.634Z,70.62
2022-11-24T21:48:41.630Z,70.74
2022-11-24T21:51:12.371Z,69.64
2022-11-24T21:53:39.911Z,70.77
2022-11-24T21:56:12.529Z,69.79
2022-11-24T21:58:45.477Z,71.40
2022-11-24T22:01:13.249Z,70.33
2022-11-24T22:03:42.180Z,70.03
2022-11-24T22:06:09.646Z,70.39
2022-11-24T22:08:37.166Z,70.52
2022-11-24T22:11:07.095Z,70.85
2022-11-24T22:13:35.370Z,70.76
2022-11-24T22:16:04.080Z,71.56
2022-11-24T22:18:33.086Z,71.18
2022-11-24T22:21:03.036Z,70.96
2022-11-24T22:23:31.114Z,71.26
2022-11-24T22:26:03.547Z,70.79
2022-11-24T22:28:32.154Z,70.79
2022-11-24T22:30:59.747Z,72.50
2022-11-24T22:33:27.194Z,71.64
2022-11-24T22:35:58.165Z,72.12
2022-11-24T22:38:28.097Z,71.87
2022-11-24T22:40:55.588Z,71.43
2022-11-24T22:43:23.300Z,71.75
2022-11-24T22:45:50.889Z,71.67
2022-11-24T22:48:18.797Z,71.42
2022-11-24T22:50:46.294Z,71.72
2022-11-24T22:53:13.739Z,71.31
2022-11-24T22:55:42.531Z,71.02
2022-11-24T22:58:10.025Z,71.92
2022-11-24T23:00:37.494Z,71.87
2022-11-24T23:03:04.985Z,71.16
2022-11-24T23:05:33.618Z,70.81
2022-11-24T23:08:01.089Z,71.64
2022-11-24T23:10:28.562Z,71.20
2022-11-24T23:12:57.385Z,70.83
2022-11-24T23:15:24.879Z,71.25
2022-11-24T23:17:52.328Z,70.72
2022-11-24T23:20:19.972Z,71.93
2022-11-24T23:22:47.512Z,70.72
2022-11-24T23:25:15.061Z,71.44
2022-11-24T23:27:42.512Z,70.95
2022-11-24T23:30:11.869Z,71.68
2022-11-24T23:32:40.042Z,71.84
2022-11-24T23:35:13.467Z,71.01
2022-11-24T23:38:06.111Z,71.48
2022-11-24T23:40:29.284Z,71.97
2022-11-24T23:42:56.752Z,71.17
2022-11-24T23:45:25.604Z,70.97
2022-11-24T23:47:54.775Z,71.88
2022-11-24T23:50:22.241Z,71.86
2022-11-24T23:52:49.788Z,70.97
2022-11-24T23:55:17.455Z,71.62
2022-11-24T23:57:45.112Z,71.34
